Time;durP1;ratioP1;P1;durP2;ratioP2;P2;SDS_P1;SDS_P2;PMS_P1;PMS_P2;Temp;Humidity;BMP_temperature;BMP_pressure;BME280_temperature;BME280_humidity;BME280_pressure;Samples;Min_cycle;Max_cycle;Signal;HPM_P1;HPM_P2
2022/12/26 00:01:47;;;;;;;;;;;8.60;99.90;;;;;;5053429;28;20287;-88
2022/12/26 00:04:13;;;;;;;;;;;8.60;99.90;;;;;;5054586;28;20303;-88
2022/12/26 00:06:39;;;;;;;;;;;8.60;99.90;;;;;;5053774;28;19920;-86
2022/12/26 00:09:05;;;;;;;;;;;8.60;99.90;;;;;;5055421;28;19916;-88
2022/12/26 00:11:31;;;;;;;;;;;8.60;99.90;;;;;;5055254;28;19941;-78
2022/12/26 00:13:58;;;;;;;;;;;8.60;99.90;;;;;;5049307;28;20350;-89
2022/12/26 00:16:25;;;;;;;;;;;8.60;99.90;;;;;;5051758;28;20010;-88
2022/12/26 00:18:51;;;;;;;;;;;8.60;99.90;;;;;;5053957;28;19908;-89
2022/12/26 00:21:17;;;;;;;;;;;8.60;99.90;;;;;;5054860;28;19909;-90
2022/12/26 00:23:43;;;;;;;;;;;8.60;99.90;;;;;;5050421;28;20303;-79
2022/12/26 00:26:19;;;;;;;;;;;8.60;99.90;;;;;;5053851;28;19927;-85
2022/12/26 00:28:45;;;;;;;;;;;8.60;99.90;;;;;;5053665;28;19940;-89
2022/12/26 00:31:14;;;;;;;;;;;8.60;99.90;;;;;;5054804;28;19908;-88
2022/12/26 00:33:40;;;;;;;;;;;8.60;99.90;;;;;;5053911;28;19919;-90
2022/12/26 00:36:08;;;;;;;;;;;8.60;99.90;;;;;;5054044;28;19917;-90
2022/12/26 00:38:34;;;;;;;;;;;8.60;99.90;;;;;;5051271;28;20322;-89
2022/12/26 00:41:00;;;;;;;;;;;8.60;99.90;;;;;;5050074;28;19925;-90
2022/12/26 00:43:26;;;;;;;;;;;8.60;99.90;;;;;;5048696;28;19992;-86
2022/12/26 00:45:52;;;;;;;;;;;8.60;99.90;;;;;;5048519;28;19908;-88
2022/12/26 00:48:17;;;;;;;;;;;8.60;99.90;;;;;;5052227;28;20333;-88
2022/12/26 00:50:43;;;;;;;;;;;8.60;99.90;;;;;;5052464;28;19920;-89
2022/12/26 00:53:09;;;;;;;;;;;8.60;99.90;;;;;;5053757;28;19916;-81
2022/12/26 00:55:34;;;;;;;;;;;8.60;99.90;;;;;;5050612;28;20390;-87
2022/12/26 00:58:00;;;;;;;;;;;8.60;99.90;;;;;;5051688;28;19916;-87
2022/12/26 01:00:26;;;;;;;;;;;8.60;99.90;;;;;;5037769;28;19947;-82
2022/12/26 01:02:51;;;;;;;;;;;8.70;99.90;;;;;;5046361;28;19980;-80
2022/12/26 01:05:17;;;;;;;;;;;8.60;99.90;;;;;;5046146;28;19927;-79
2022/12/26 01:07:43;;;;;;;;;;;8.70;99.90;;;;;;5054332;28;20311;-79
2022/12/26 01:10:10;;;;;;;;;;;8.70;99.90;;;;;;5057184;28;20295;-79
2022/12/26 01:12:36;;;;;;;;;;;8.70;99.90;;;;;;5057522;28;19912;-79
2022/12/26 01:15:03;;;;;;;;;;;8.70;99.90;;;;;;5048655;28;19935;-80
2022/12/26 01:17:28;;;;;;;;;;;8.70;99.90;;;;;;5057697;28;20219;-79
2022/12/26 01:19:54;;;;;;;;;;;8.70;99.90;;;;;;5066785;28;19908;-79
2022/12/26 01:22:20;;;;;;;;;;;8.60;99.90;;;;;;5057758;28;19951;-79
2022/12/26 01:24:46;;;;;;;;;;;8.60;99.90;;;;;;5056492;28;19909;-87
2022/12/26 01:27:12;;;;;;;;;;;8.60;99.90;;;;;;5055221;28;20271;-79
2022/12/26 01:29:38;;;;;;;;;;;8.60;99.90;;;;;;5053261;28;20255;-82
2022/12/26 01:32:04;;;;;;;;;;;8.60;99.90;;;;;;5057573;28;19913;-79
2022/12/26 01:34:29;;;;;;;;;;;8.60;99.90;;;;;;5047612;28;20296;-79
2022/12/26 01:36:55;;;;;;;;;;;8.50;99.90;;;;;;5055647;28;19913;-89
2022/12/26 01:39:21;;;;;;;;;;;8.50;99.90;;;;;;5063465;28;19908;-85
2022/12/26 01:41:46;;;;;;;;;;;8.50;99.90;;;;;;5056992;28;19921;-81
2022/12/26 01:44:31;;;;;;;;;;;8.50;99.90;;;;;;5056555;28;19916;-87
2022/12/26 01:46:57;;;;;;;;;;;8.50;99.90;;;;;;5056863;28;19924;-89
2022/12/26 01:49:25;;;;;;;;;;;8.50;99.90;;;;;;5055215;28;19951;-88
2022/12/26 01:51:55;;;;;;;;;;;8.50;99.90;;;;;;5056934;28;19916;-80
2022/12/26 01:54:21;;;;;;;;;;;8.60;99.90;;;;;;5055090;28;19913;-78
2022/12/26 01:56:47;;;;;;;;;;;8.50;99.90;;;;;;5054272;28;19939;-79
2022/12/26 01:59:17;;;;;;;;;;;8.50;99.90;;;;;;5057423;28;19969;-88
2022/12/26 02:01:44;;;;;;;;;;;8.50;99.90;;;;;;5056530;28;19913;-78
2022/12/26 02:06:56;;;;;;;;;;;8.50;99.90;;;;;;5052404;28;19931;-86
2022/12/26 02:09:22;;;;;;;;;;;8.50;99.90;;;;;;5056666;28;19921;-89
2022/12/26 02:11:55;;;;;;;;;;;8.50;99.90;;;;;;5052233;28;20223;-79
2022/12/26 02:14:20;;;;;;;;;;;8.50;99.90;;;;;;5051678;28;20200;-88
2022/12/26 02:16:46;;;;;;;;;;;8.50;99.90;;;;;;5054940;28;19920;-78
2022/12/26 02:19:27;;;;;;;;;;;8.40;99.90;;;;;;5053487;28;19917;-78
2022/12/26 02:22:05;;;;;;;;;;;8.40;99.90;;;;;;5049082;28;19952;-77
2022/12/26 02:24:46;;;;;;;;;;;8.40;99.90;;;;;;5050336;28;19913;-79
2022/12/26 02:27:15;;;;;;;;;;;8.40;99.90;;;;;;5071618;28;19917;-86
2022/12/26 02:29:41;;;;;;;;;;;8.40;99.90;;;;;;5054911;28;19917;-85
2022/12/26 02:32:10;;;;;;;;;;;8.40;99.90;;;;;;5050259;28;19920;-78
2022/12/26 02:34:48;;;;;;;;;;;8.40;99.90;;;;;;5054330;28;19920;-87
2022/12/26 02:37:20;;;;;;;;;;;8.30;99.90;;;;;;5050879;28;19909;-78
2022/12/26 02:40:05;;;;;;;;;;;8.20;99.90;;;;;;5054880;28;19909;-86
2022/12/26 02:42:49;;;;;;;;;;;8.20;99.90;;;;;;5053332;28;20019;-80
2022/12/26 02:48:41;;;;;;;;;;;8.10;99.90;;;;;;5043463;28;19966;-80
2022/12/26 03:13:53;;;;;;;;;;;7.60;99.90;;;;;;5056144;28;19919;-80
2022/12/26 03:19:06;;;;;;;;;;;7.60;99.90;;;;;;5046338;28;20342;-80
2022/12/26 03:21:35;;;;;;;;;;;7.60;99.90;;;;;;5054678;28;20316;-87
2022/12/26 03:24:00;;;;;;;;;;;7.70;99.90;;;;;;5054775;28;19913;-87
2022/12/26 03:26:42;;;;;;;;;;;7.70;99.90;;;;;;5055107;28;19923;-89
2022/12/26 03:31:57;;;;;;;;;;;7.70;99.90;;;;;;5046714;28;19936;-85
2022/12/26 03:34:23;;;;;;;;;;;7.80;99.90;;;;;;5055009;28;19988;-78
2022/12/26 03:37:00;;;;;;;;;;;7.80;99.90;;;;;;5051284;28;19909;-81
2022/12/26 04:19:24;;;;;;;;;;;7.80;99.90;;;;;;5053522;28;19927;-86
2022/12/26 04:44:29;;;;;;;;;;;7.70;99.90;;;;;;5050815;28;20207;-79
2022/12/26 04:46:55;;;;;;;;;;;7.70;99.90;;;;;;5048258;28;19913;-90
2022/12/26 04:52:07;;;;;;;;;;;7.60;99.90;;;;;;5047074;28;19916;-86
2022/12/26 04:54:32;;;;;;;;;;;7.60;99.90;;;;;;5049010;28;19920;-86
2022/12/26 04:56:58;;;;;;;;;;;7.60;99.90;;;;;;5043957;28;19917;-87
2022/12/26 04:59:24;;;;;;;;;;;7.50;99.90;;;;;;5049117;28;19943;-84
2022/12/26 05:10:07;;;;;;;;;;;7.50;99.90;;;;;;5049944;28;19923;-88
2022/12/26 05:12:33;;;;;;;;;;;7.50;99.90;;;;;;5062913;28;19913;-89
2022/12/26 05:14:59;;;;;;;;;;;7.50;99.90;;;;;;5054058;28;19909;-80
2022/12/26 05:28:42;;;;;;;;;;;7.40;99.90;;;;;;5043181;28;20131;-87
2022/12/26 05:31:09;;;;;;;;;;;7.40;99.90;;;;;;5052674;28;19913;-84
2022/12/26 05:36:20;;;;;;;;;;;7.30;99.90;;;;;;5048933;28;19924;-80
2022/12/26 05:38:47;;;;;;;;;;;7.30;99.90;;;;;;5049154;28;20069;-88
2022/12/26 05:41:13;;;;;;;;;;;7.30;99.90;;;;;;5046422;28;20044;-79
2022/12/26 05:43:38;;;;;;;;;;;7.30;99.90;;;;;;5052136;28;20291;-80
2022/12/26 05:46:04;;;;;;;;;;;7.30;99.90;;;;;;5049498;28;19924;-85
2022/12/26 05:48:30;;;;;;;;;;;7.30;99.90;;;;;;5052610;28;19959;-79
2022/12/26 05:51:02;;;;;;;;;;;7.30;99.90;;;;;;5048409;28;19917;-88
2022/12/26 05:53:28;;;;;;;;;;;7.30;99.90;;;;;;5055487;28;19928;-89
2022/12/26 05:55:54;;;;;;;;;;;7.30;99.90;;;;;;5046691;28;20256;-79
2022/12/26 05:58:20;;;;;;;;;;;7.20;99.90;;;;;;5047105;28;19917;-87
2022/12/26 06:00:46;;;;;;;;;;;7.20;99.90;;;;;;5048438;28;19920;-90
2022/12/26 06:03:12;;;;;;;;;;;7.20;99.90;;;;;;5047484;28;19913;-89
2022/12/26 06:05:37;;;;;;;;;;;7.20;99.90;;;;;;5053443;28;19921;-89
2022/12/26 06:08:03;;;;;;;;;;;7.20;99.90;;;;;;5045587;28;20079;-78
2022/12/26 06:10:29;;;;;;;;;;;7.20;99.90;;;;;;5053741;28;19931;-86
2022/12/26 06:12:55;;;;;;;;;;;7.20;99.90;;;;;;5051554;28;20383;-90
2022/12/26 06:15:21;;;;;;;;;;;7.20;99.90;;;;;;5052429;28;20008;-89
2022/12/26 06:17:47;;;;;;;;;;;7.20;99.90;;;;;;5046639;28;19995;-86
2022/12/26 06:20:13;;;;;;;;;;;7.20;99.90;;;;;;5049585;28;20286;-80
2022/12/26 06:22:38;;;;;;;;;;;7.20;99.90;;;;;;5050504;28;19950;-79
2022/12/26 06:25:04;;;;;;;;;;;7.20;99.90;;;;;;5044598;28;19909;-80
2022/12/26 06:27:30;;;;;;;;;;;7.20;99.90;;;;;;5052521;28;19958;-89
2022/12/26 06:29:55;;;;;;;;;;;7.20;99.90;;;;;;5048027;28;19914;-79
2022/12/26 06:32:21;;;;;;;;;;;7.20;99.90;;;;;;5053869;28;19921;-80
2022/12/26 06:34:47;;;;;;;;;;;7.20;99.90;;;;;;5051049;28;19909;-78
2022/12/26 06:37:13;;;;;;;;;;;7.30;99.90;;;;;;5051959;28;19956;-78
2022/12/26 06:39:38;;;;;;;;;;;7.40;99.90;;;;;;5048115;28;19912;-81
2022/12/26 06:42:04;;;;;;;;;;;7.50;99.90;;;;;;5055522;28;19921;-90
2022/12/26 06:44:30;;;;;;;;;;;7.60;99.90;;;;;;5048328;28;20311;-81
2022/12/26 06:46:55;;;;;;;;;;;7.60;99.90;;;;;;5053913;28;19916;-89
2022/12/26 06:49:21;;;;;;;;;;;7.60;99.90;;;;;;5046704;28;19967;-83
2022/12/26 06:51:47;;;;;;;;;;;7.70;99.90;;;;;;5055839;28;19913;-81
2022/12/26 06:54:13;;;;;;;;;;;7.60;99.90;;;;;;5052470;28;19935;-90
2022/12/26 06:56:38;;;;;;;;;;;7.60;99.90;;;;;;5052342;28;19921;-81
2022/12/26 06:59:05;;;;;;;;;;;7.70;99.90;;;;;;5031278;28;19917;-86
2022/12/26 07:01:32;;;;;;;;;;;7.70;99.90;;;;;;5041394;28;19963;-83
2022/12/26 07:03:58;;;;;;;;;;;7.70;99.90;;;;;;5047639;28;20211;-87
2022/12/26 07:06:35;;;;;;;;;;;7.80;99.90;;;;;;5049530;28;19958;-84
2022/12/26 07:09:02;;;;;;;;;;;7.80;99.90;;;;;;5051433;28;19960;-85
2022/12/26 07:11:30;;;;;;;;;;;7.80;99.90;;;;;;5042293;28;19931;-81
2022/12/26 07:13:55;;;;;;;;;;;7.80;99.90;;;;;;5053697;28;19935;-89
2022/12/26 07:16:21;;;;;;;;;;;7.80;99.90;;;;;;5046590;28;20311;-80
2022/12/26 07:18:47;;;;;;;;;;;7.80;99.90;;;;;;5046659;28;19917;-79
2022/12/26 07:21:14;;;;;;;;;;;7.80;99.90;;;;;;5042925;28;19917;-83
2022/12/26 07:23:40;;;;;;;;;;;7.80;99.90;;;;;;5052124;28;19909;-82
2022/12/26 07:26:06;;;;;;;;;;;7.70;99.90;;;;;;5047185;28;19916;-81
2022/12/26 07:28:31;;;;;;;;;;;7.70;99.90;;;;;;5047392;28;19917;-86
2022/12/26 07:30:59;;;;;;;;;;;7.70;99.90;;;;;;5049738;28;19923;-82
2022/12/26 07:33:25;;;;;;;;;;;7.70;99.90;;;;;;5048000;28;19913;-80
2022/12/26 07:35:51;;;;;;;;;;;7.80;99.90;;;;;;5043968;28;19952;-80
2022/12/26 07:38:17;;;;;;;;;;;7.80;99.90;;;;;;5053569;28;19974;-79
2022/12/26 07:40:42;;;;;;;;;;;7.80;99.90;;;;;;5048656;28;20320;-78
2022/12/26 07:43:08;;;;;;;;;;;7.90;99.90;;;;;;5048617;28;19921;-82
2022/12/26 07:45:34;;;;;;;;;;;7.90;99.90;;;;;;5053525;28;19913;-80
2022/12/26 07:47:59;;;;;;;;;;;8.00;99.90;;;;;;5052270;28;19917;-80
2022/12/26 07:50:25;;;;;;;;;;;8.00;99.90;;;;;;5053750;28;19912;-76
2022/12/26 07:52:51;;;;;;;;;;;8.10;99.90;;;;;;5050737;28;20318;-83
2022/12/26 07:55:17;;;;;;;;;;;8.00;99.90;;;;;;5047866;28;19916;-89
2022/12/26 07:57:43;;;;;;;;;;;8.10;99.90;;;;;;5047420;28;19910;-83
2022/12/26 08:00:09;;;;;;;;;;;8.10;99.90;;;;;;5052867;28;20201;-79
2022/12/26 08:02:35;;;;;;;;;;;8.10;99.90;;;;;;5052999;28;20019;-81
2022/12/26 08:05:01;;;;;;;;;;;8.20;99.90;;;;;;5026832;28;20008;-80
2022/12/26 08:07:26;;;;;;;;;;;8.20;99.90;;;;;;5050903;28;20004;-86
2022/12/26 08:09:52;;;;;;;;;;;8.20;99.90;;;;;;5048208;28;19913;-77
2022/12/26 08:12:20;;;;;;;;;;;8.30;99.90;;;;;;5037972;28;19957;-89
2022/12/26 08:14:46;;;;;;;;;;;8.30;99.90;;;;;;5053185;28;20251;-78
2022/12/26 08:17:12;;;;;;;;;;;8.30;99.90;;;;;;5050687;28;20028;-79
2022/12/26 08:19:37;;;;;;;;;;;8.40;99.90;;;;;;5053581;28;19967;-83
2022/12/26 08:22:03;;;;;;;;;;;8.40;99.90;;;;;;5051495;28;19912;-79
2022/12/26 08:24:29;;;;;;;;;;;8.40;99.90;;;;;;5051410;28;19916;-79
2022/12/26 08:26:55;;;;;;;;;;;8.50;99.90;;;;;;5051182;28;20350;-80
2022/12/26 08:29:20;;;;;;;;;;;8.50;99.90;;;;;;5053447;28;19909;-81
2022/12/26 08:31:46;;;;;;;;;;;8.50;99.90;;;;;;5046999;28;20185;-85
2022/12/26 08:34:12;;;;;;;;;;;8.50;99.90;;;;;;5050074;28;19920;-78
2022/12/26 08:36:38;;;;;;;;;;;8.50;99.90;;;;;;5052024;28;19912;-81
2022/12/26 08:39:03;;;;;;;;;;;8.60;99.90;;;;;;5048347;28;19916;-78
2022/12/26 08:41:29;;;;;;;;;;;8.60;99.90;;;;;;5052521;28;20274;-83
2022/12/26 08:43:55;;;;;;;;;;;8.60;99.90;;;;;;5052661;28;19920;-80
2022/12/26 08:46:21;;;;;;;;;;;8.60;99.90;;;;;;5049432;28;20308;-80
2022/12/26 08:48:47;;;;;;;;;;;8.60;99.90;;;;;;5048184;28;19919;-80
2022/12/26 08:51:14;;;;;;;;;;;8.60;99.90;;;;;;5050367;28;19921;-82
2022/12/26 08:53:40;;;;;;;;;;;8.60;99.90;;;;;;5053785;28;20299;-82
2022/12/26 08:56:07;;;;;;;;;;;8.60;99.90;;;;;;5053344;28;19936;-85
2022/12/26 08:58:33;;;;;;;;;;;8.60;99.90;;;;;;5041565;28;19921;-82
2022/12/26 09:01:25;;;;;;;;;;;8.70;99.90;;;;;;5054368;28;19923;-80
2022/12/26 09:03:54;;;;;;;;;;;8.60;99.90;;;;;;5045697;28;19913;-81
2022/12/26 09:06:20;;;;;;;;;;;8.70;99.90;;;;;;5042233;28;19920;-83
2022/12/26 09:08:46;;;;;;;;;;;8.70;99.90;;;;;;5044924;28;20227;-85
2022/12/26 09:11:13;;;;;;;;;;;8.70;99.90;;;;;;5048099;28;19944;-78
2022/12/26 09:13:40;;;;;;;;;;;8.70;99.90;;;;;;5052186;28;19913;-80
2022/12/26 09:16:16;;;;;;;;;;;8.60;99.90;;;;;;5054736;28;19909;-82
2022/12/26 09:18:42;;;;;;;;;;;8.30;99.90;;;;;;5056629;28;19917;-85
2022/12/26 09:21:09;;;;;;;;;;;8.00;99.90;;;;;;5048005;28;19917;-82
2022/12/26 09:23:35;;;;;;;;;;;8.00;99.90;;;;;;5045153;28;19909;-83
2022/12/26 09:26:04;;;;;;;;;;;7.90;99.90;;;;;;5055828;28;19921;-81
2022/12/26 09:28:30;;;;;;;;;;;7.90;99.90;;;;;;5052691;28;20263;-77
2022/12/26 09:30:58;;;;;;;;;;;7.70;99.90;;;;;;5036992;28;19916;-83
2022/12/26 09:33:24;;;;;;;;;;;7.60;99.90;;;;;;5051544;28;19913;-82
2022/12/26 09:35:49;;;;;;;;;;;7.60;99.90;;;;;;5057605;28;20389;-85
2022/12/26 09:38:15;;;;;;;;;;;7.50;99.90;;;;;;5048620;28;19963;-79
2022/12/26 09:40:59;;;;;;;;;;;7.50;99.90;;;;;;5051529;28;20339;-78
2022/12/26 09:43:54;;;;;;;;;;;7.50;99.90;;;;;;5052607;28;20308;-81
2022/12/26 09:46:28;;;;;;;;;;;7.30;99.90;;;;;;5031080;28;19909;-78
2022/12/26 09:48:57;;;;;;;;;;;7.30;99.90;;;;;;5054125;28;20318;-83
2022/12/26 09:51:24;;;;;;;;;;;7.30;99.90;;;;;;5053476;28;19913;-78
2022/12/26 09:53:50;;;;;;;;;;;7.30;99.90;;;;;;5048811;28;19913;-79
2022/12/26 09:56:17;;;;;;;;;;;7.40;99.90;;;;;;5053655;28;19962;-81
2022/12/26 09:58:50;;;;;;;;;;;7.40;99.90;;;;;;5055976;28;19915;-81
2022/12/26 10:01:15;;;;;;;;;;;7.40;99.90;;;;;;5034017;28;20380;-79
2022/12/26 10:03:43;;;;;;;;;;;7.40;99.90;;;;;;5050447;28;20004;-78
2022/12/26 10:06:17;;;;;;;;;;;7.50;99.90;;;;;;5063216;28;19936;-78
2022/12/26 10:08:42;;;;;;;;;;;7.50;99.90;;;;;;5055078;28;19963;-79
2022/12/26 10:11:14;;;;;;;;;;;7.50;99.90;;;;;;5050566;28;19953;-77
2022/12/26 10:13:49;;;;;;;;;;;7.50;99.90;;;;;;5054947;28;19915;-78
2022/12/26 10:16:16;;;;;;;;;;;7.50;99.90;;;;;;5052967;28;19920;-79
2022/12/26 10:18:51;;;;;;;;;;;7.40;99.90;;;;;;5044390;28;20000;-79
2022/12/26 10:21:16;;;;;;;;;;;7.40;99.90;;;;;;5057566;28;19909;-78
2022/12/26 10:23:56;;;;;;;;;;;7.30;99.90;;;;;;5055045;28;19965;-79
2022/12/26 10:26:36;;;;;;;;;;;7.40;99.90;;;;;;5049454;28;19928;-80
2022/12/26 10:29:09;;;;;;;;;;;7.40;99.90;;;;;;5051849;28;19959;-76
2022/12/26 10:31:41;;;;;;;;;;;7.50;99.90;;;;;;5051228;28;19916;-77
2022/12/26 10:34:06;;;;;;;;;;;7.50;99.90;;;;;;5055117;28;20793;-76
2022/12/26 10:36:34;;;;;;;;;;;7.50;99.90;;;;;;5056694;28;19996;-77
2022/12/26 10:39:02;;;;;;;;;;;7.60;99.90;;;;;;5057143;28;19958;-77
2022/12/26 10:41:40;;;;;;;;;;;7.60;99.90;;;;;;5047072;28;19968;-79
2022/12/26 10:44:09;;;;;;;;;;;7.70;99.90;;;;;;5054817;28;20327;-82
2022/12/26 10:46:55;;;;;;;;;;;7.70;99.90;;;;;;5055560;28;19917;-78
2022/12/26 10:49:21;;;;;;;;;;;7.70;99.90;;;;;;5054663;28;19915;-77
2022/12/26 10:51:48;;;;;;;;;;;7.80;99.90;;;;;;5048902;28;19963;-80
2022/12/26 10:54:16;;;;;;;;;;;7.90;99.90;;;;;;5054164;28;19912;-86
2022/12/26 10:56:43;;;;;;;;;;;8.00;99.90;;;;;;5053415;28;19912;-79
2022/12/26 10:59:12;;;;;;;;;;;8.10;99.90;;;;;;5046628;28;19912;-80
2022/12/26 11:01:39;;;;;;;;;;;8.10;99.90;;;;;;5054609;28;19917;-79
2022/12/26 11:04:14;;;;;;;;;;;8.10;99.90;;;;;;5054605;28;19920;-83
2022/12/26 11:06:41;;;;;;;;;;;8.20;99.90;;;;;;5054119;28;19939;-80
2022/12/26 11:09:21;;;;;;;;;;;8.20;99.90;;;;;;5055577;28;19913;-80
2022/12/26 11:11:48;;;;;;;;;;;8.20;99.90;;;;;;5053190;28;19910;-80
2022/12/26 11:14:29;;;;;;;;;;;8.30;99.90;;;;;;5054702;28;20288;-79
2022/12/26 11:16:56;;;;;;;;;;;8.20;99.90;;;;;;5044233;28;20000;-79
2022/12/26 11:19:26;;;;;;;;;;;8.30;99.90;;;;;;5050810;28;19913;-81
2022/12/26 11:21:51;;;;;;;;;;;8.40;99.90;;;;;;5053813;28;19913;-80
2022/12/26 11:24:21;;;;;;;;;;;8.50;99.90;;;;;;5035916;28;20012;-79
2022/12/26 11:26:47;;;;;;;;;;;8.50;99.90;;;;;;5052990;28;19920;-77
2022/12/26 11:29:14;;;;;;;;;;;8.50;99.90;;;;;;5053662;28;19996;-80
2022/12/26 11:31:41;;;;;;;;;;;8.50;99.90;;;;;;5052994;28;19909;-80
2022/12/26 11:34:08;;;;;;;;;;;8.50;99.90;;;;;;5048016;28;19936;-80
2022/12/26 11:36:35;;;;;;;;;;;8.50;99.90;;;;;;5051038;28;19943;-84
2022/12/26 11:39:03;;;;;;;;;;;8.40;99.90;;;;;;5049549;28;20263;-77
2022/12/26 11:41:31;;;;;;;;;;;8.30;99.90;;;;;;5043088;28;19987;-79
2022/12/26 11:44:09;;;;;;;;;;;8.30;99.90;;;;;;5047679;28;20217;-83
2022/12/26 11:46:37;;;;;;;;;;;8.20;99.90;;;;;;5047753;28;19917;-82
2022/12/26 11:49:04;;;;;;;;;;;8.20;99.90;;;;;;5052389;28;19920;-78
2022/12/26 11:51:34;;;;;;;;;;;8.10;99.90;;;;;;5054685;28;19952;-78
2022/12/26 11:54:18;;;;;;;;;;;8.00;99.90;;;;;;5054091;28;19908;-80
2022/12/26 11:56:43;;;;;;;;;;;7.90;99.90;;;;;;5058941;28;20024;-83
2022/12/26 11:59:17;;;;;;;;;;;7.90;99.90;;;;;;5063627;28;19996;-77
2022/12/26 12:01:43;;;;;;;;;;;7.80;99.90;;;;;;5053418;28;19923;-79
2022/12/26 12:04:08;;;;;;;;;;;7.80;99.90;;;;;;5049499;28;19913;-79
2022/12/26 12:06:34;;;;;;;;;;;7.80;99.90;;;;;;5052522;28;19920;-79
2022/12/26 12:09:06;;;;;;;;;;;7.90;99.90;;;;;;5052879;28;19917;-81
2022/12/26 12:11:43;;;;;;;;;;;7.90;99.90;;;;;;5045321;28;19914;-80
2022/12/26 12:14:22;;;;;;;;;;;8.00;99.90;;;;;;5050657;28;19912;-81
2022/12/26 12:16:55;;;;;;;;;;;8.10;99.90;;;;;;5043125;28;19917;-81
2022/12/26 12:19:20;;;;;;;;;;;8.20;99.90;;;;;;5067849;28;20303;-77
2022/12/26 12:21:58;;;;;;;;;;;8.20;99.90;;;;;;5050267;28;19917;-79
2022/12/26 12:24:30;;;;;;;;;;;8.20;99.90;;;;;;5051437;28;20292;-79
2022/12/26 12:27:04;;;;;;;;;;;8.20;99.90;;;;;;5053368;28;19916;-79
2022/12/26 12:29:36;;;;;;;;;;;8.00;99.90;;;;;;5037983;28;19979;-79
2022/12/26 12:32:08;;;;;;;;;;;7.90;99.90;;;;;;5045040;28;19935;-78
2022/12/26 12:34:52;;;;;;;;;;;7.80;99.90;;;;;;5046204;28;20011;-78
2022/12/26 12:37:31;;;;;;;;;;;7.80;99.90;;;;;;5052694;28;20352;-77
2022/12/26 12:40:03;;;;;;;;;;;7.80;99.90;;;;;;5051986;28;19913;-77
2022/12/26 12:42:40;;;;;;;;;;;7.80;99.90;;;;;;5052971;28;19916;-76
2022/12/26 12:45:28;;;;;;;;;;;7.70;99.90;;;;;;5050528;28;20212;-79
2022/12/26 12:48:06;;;;;;;;;;;7.60;99.90;;;;;;5049973;28;19959;-79
2022/12/26 12:50:41;;;;;;;;;;;7.40;99.90;;;;;;5050307;28;20016;-79
2022/12/26 12:53:22;;;;;;;;;;;7.30;99.90;;;;;;5056685;28;19913;-79
2022/12/26 12:55:57;;;;;;;;;;;7.20;99.90;;;;;;5057647;28;19920;-79
2022/12/26 12:58:31;;;;;;;;;;;7.10;99.90;;;;;;5058135;28;20214;-77
2022/12/26 13:01:03;;;;;;;;;;;7.10;99.90;;;;;;5059771;28;19909;-79
2022/12/26 13:03:34;;;;;;;;;;;7.10;99.90;;;;;;5058813;28;19913;-79
2022/12/26 13:06:35;;;;;;;;;;;7.10;99.90;;;;;;5056267;28;20414;-80
2022/12/26 13:09:03;;;;;;;;;;;7.10;99.90;;;;;;4998549;28;19918;-77
2022/12/26 13:11:33;;;;;;;;;;;7.10;99.90;;;;;;4999223;28;19913;-78
2022/12/26 13:14:17;;;;;;;;;;;7.10;99.90;;;;;;4998588;28;20395;-80
2022/12/26 13:16:49;;;;;;;;;;;7.10;99.90;;;;;;4996725;28;20323;-77
2022/12/26 13:19:20;;;;;;;;;;;7.00;99.90;;;;;;4997703;28;19956;-78
2022/12/26 13:21:47;;;;;;;;;;;7.00;99.90;;;;;;4988943;28;19999;-81
2022/12/26 13:24:25;;;;;;;;;;;7.10;99.90;;;;;;4993595;28;19924;-77
2022/12/26 13:26:54;;;;;;;;;;;7.00;99.90;;;;;;4980602;28;19926;-77
2022/12/26 13:29:39;;;;;;;;;;;7.00;99.90;;;;;;4980028;28;20356;-77
2022/12/26 13:32:20;;;;;;;;;;;7.00;99.90;;;;;;4996109;28;19914;-78
2022/12/26 13:34:46;;;;;;;;;;;7.00;99.90;;;;;;4994465;28;19918;-77
2022/12/26 13:37:31;;;;;;;;;;;7.00;99.90;;;;;;4995827;28;19976;-77
2022/12/26 13:39:57;;;;;;;;;;;6.90;99.90;;;;;;4989834;28;19914;-77
2022/12/26 13:45:32;;;;;;;;;;;6.80;99.90;;;;;;5054210;28;20407;-78
2022/12/26 13:47:57;;;;;;;;;;;6.70;99.90;;;;;;5052354;28;19916;-77
2022/12/26 13:50:42;;;;;;;;;;;6.60;99.90;;;;;;5054050;28;19909;-77
2022/12/26 13:53:23;;;;;;;;;;;6.60;99.90;;;;;;5057028;28;19912;-77
2022/12/26 13:56:09;;;;;;;;;;;6.50;99.90;;;;;;5049747;28;19943;-77
2022/12/26 13:59:01;;;;;;;;;;;6.40;99.90;;;;;;5051264;28;19916;-78
2022/12/26 14:01:36;;;;;;;;;;;6.40;99.90;;;;;;4991902;28;19969;-77
2022/12/26 14:04:14;;;;;;;;;;;6.30;99.90;;;;;;4993178;28;20501;-77
2022/12/26 14:06:58;;;;;;;;;;;6.30;99.90;;;;;;4993513;28;20060;-78
2022/12/26 14:09:27;;;;;;;;;;;6.20;99.90;;;;;;4989027;28;19918;-79
2022/12/26 14:12:14;;;;;;;;;;;6.20;99.90;;;;;;4989317;28;19918;-77
2022/12/26 14:14:49;;;;;;;;;;;6.20;99.90;;;;;;4992500;28;19910;-76
2022/12/26 14:17:33;;;;;;;;;;;6.20;99.90;;;;;;4974735;28;19922;-78
2022/12/26 14:20:05;;;;;;;;;;;6.20;99.90;;;;;;4993843;28;20459;-78
2022/12/26 14:22:38;;;;;;;;;;;6.20;99.90;;;;;;4973194;28;19949;-80
2022/12/26 14:25:20;;;;;;;;;;;6.20;99.90;;;;;;4994142;28;19918;-78
2022/12/26 14:27:52;;;;;;;;;;;6.20;99.90;;;;;;4993887;28;20011;-80
2022/12/26 14:30:23;;;;;;;;;;;6.30;99.90;;;;;;4995634;28;20106;-76
2022/12/26 14:33:03;;;;;;;;;;;6.30;99.90;;;;;;4979241;28;19918;-78
2022/12/26 14:35:28;;;;;;;;;;;6.30;99.90;;;;;;4975752;28;20024;-78
2022/12/26 14:38:14;;;;;;;;;;;6.30;99.90;;;;;;5012742;28;19996;-78
2022/12/26 14:40:56;;;;;;;;;;;6.30;99.90;;;;;;5009005;28;20339;-78
2022/12/26 14:43:30;;;;;;;;;;;6.30;99.90;;;;;;5048418;28;19915;-78
2022/12/26 14:45:57;;;;;;;;;;;6.30;99.90;;;;;;5046149;28;19941;-79
2022/12/26 14:48:22;;;;;;;;;;;6.40;99.90;;;;;;5048208;28;19943;-79
2022/12/26 14:50:51;;;;;;;;;;;6.50;99.90;;;;;;5047841;28;20398;-80
2022/12/26 14:53:26;;;;;;;;;;;6.50;99.90;;;;;;5051663;28;19912;-77
2022/12/26 14:55:58;;;;;;;;;;;6.50;99.90;;;;;;5048293;28;19921;-77
2022/12/26 14:58:30;;;;;;;;;;;6.40;99.90;;;;;;5048094;28;19959;-77
2022/12/26 15:00:56;;;;;;;;;;;6.40;99.90;;;;;;5052247;28;19917;-76
2022/12/26 15:03:22;;;;;;;;;;;6.30;99.90;;;;;;5051158;28;19917;-76
2022/12/26 15:05:49;;;;;;;;;;;6.30;99.90;;;;;;5053491;28;19923;-77
2022/12/26 15:08:33;;;;;;;;;;;6.30;99.90;;;;;;5054848;28;20008;-78
2022/12/26 15:11:17;;;;;;;;;;;6.40;99.90;;;;;;5050196;28;19920;-77
2022/12/26 15:13:43;;;;;;;;;;;6.40;99.90;;;;;;5051932;28;19916;-78
2022/12/26 15:16:17;;;;;;;;;;;6.40;99.90;;;;;;5053856;28;19943;-77
2022/12/26 15:19:02;;;;;;;;;;;6.30;99.90;;;;;;5049873;28;19921;-79
2022/12/26 15:21:46;;;;;;;;;;;6.20;99.90;;;;;;5042501;28;19913;-78
2022/12/26 15:24:30;;;;;;;;;;;6.10;99.90;;;;;;5051419;28;19970;-76
2022/12/26 15:27:05;;;;;;;;;;;6.10;99.90;;;;;;5051202;28;19917;-78
2022/12/26 15:29:49;;;;;;;;;;;6.00;99.90;;;;;;5051963;28;20008;-77
2022/12/26 15:32:14;;;;;;;;;;;5.90;99.90;;;;;;5053968;28;20231;-79
2022/12/26 15:34:48;;;;;;;;;;;5.90;99.90;;;;;;5045189;28;19917;-78
2022/12/26 15:37:14;;;;;;;;;;;5.80;99.90;;;;;;5052487;28;19921;-78
2022/12/26 15:39:45;;;;;;;;;;;5.70;99.90;;;;;;5052118;28;19909;-79
2022/12/26 15:42:11;;;;;;;;;;;5.60;99.90;;;;;;5045612;28;19925;-79
2022/12/26 15:44:46;;;;;;;;;;;5.50;99.90;;;;;;5052779;28;20383;-79
2022/12/26 15:47:18;;;;;;;;;;;5.40;99.90;;;;;;5044862;28;20278;-78
2022/12/26 15:49:50;;;;;;;;;;;5.20;99.90;;;;;;5044352;28;19955;-78
2022/12/26 15:52:18;;;;;;;;;;;5.20;99.90;;;;;;5045182;28;19913;-79
2022/12/26 15:55:00;;;;;;;;;;;5.10;99.90;;;;;;5052357;28;19964;-79
2022/12/26 15:57:34;;;;;;;;;;;5.00;99.90;;;;;;5046978;28;19913;-78
2022/12/26 16:00:03;;;;;;;;;;;5.00;99.90;;;;;;5051281;28;19931;-76
2022/12/26 16:02:31;;;;;;;;;;;4.90;99.90;;;;;;5052250;28;20430;-77
2022/12/26 16:05:09;;;;;;;;;;;4.70;99.90;;;;;;5049083;28;20278;-79
2022/12/26 16:07:38;;;;;;;;;;;4.60;99.90;;;;;;5043448;28;20282;-79
2022/12/26 16:10:24;;;;;;;;;;;4.50;99.90;;;;;;5051161;28;19909;-79
2022/12/26 16:13:21;;;;;;;;;;;4.30;99.90;;;;;;5041226;28;19919;-79
2022/12/26 16:15:47;;;;;;;;;;;4.20;99.90;;;;;;5051359;28;19920;-76
2022/12/26 16:18:20;;;;;;;;;;;4.10;99.90;;;;;;5053750;28;19917;-78
2022/12/26 16:23:34;;;;;;;;;;;3.90;99.90;;;;;;5043907;28;20047;-79
2022/12/26 16:26:00;;;;;;;;;;;3.80;99.90;;;;;;5052780;28;19920;-79
2022/12/26 16:28:29;;;;;;;;;;;3.80;99.90;;;;;;5054217;28;19921;-76
2022/12/26 16:30:56;;;;;;;;;;;3.80;99.90;;;;;;5050206;28;19917;-78
2022/12/26 16:33:22;;;;;;;;;;;3.70;99.90;;;;;;5045348;28;20385;-76
2022/12/26 16:35:49;;;;;;;;;;;3.70;99.90;;;;;;5046927;28;19917;-76
2022/12/26 16:38:16;;;;;;;;;;;3.60;99.90;;;;;;5045584;28;19917;-78
2022/12/26 16:40:42;;;;;;;;;;;3.60;99.90;;;;;;5044074;28;19951;-79
2022/12/26 16:43:16;;;;;;;;;;;3.60;99.90;;;;;;5048993;28;19917;-79
2022/12/26 16:45:43;;;;;;;;;;;3.50;99.90;;;;;;5044813;28;20219;-78
2022/12/26 16:48:12;;;;;;;;;;;3.50;99.90;;;;;;5023663;28;19994;-76
2022/12/26 16:50:49;;;;;;;;;;;3.40;99.90;;;;;;5046542;28;20261;-76
2022/12/26 16:53:16;;;;;;;;;;;3.40;99.90;;;;;;5046432;28;19920;-80
2022/12/26 16:55:46;;;;;;;;;;;3.40;99.90;;;;;;5048613;28;19913;-76